createdAt,value
2018-03-30T00:02:06.137Z,96.30
2018-03-30T00:04:35.143Z,96.50
2018-03-30T00:07:08.181Z,96.60
2018-03-30T00:09:45.863Z,96.60
2018-03-30T00:12:15.465Z,96.50
2018-03-30T00:14:44.889Z,96.60
2018-03-30T00:17:14.729Z,96.50
2018-03-30T00:19:45.816Z,96.50
2018-03-30T00:22:15.493Z,96.50
2018-03-30T00:24:44.900Z,96.60
2018-03-30T00:27:14.038Z,96.50
2018-03-30T00:29:44.041Z,96.40
2018-03-30T00:32:13.451Z,96.30
2018-03-30T00:34:43.156Z,96.30
2018-03-30T00:37:13.135Z,96.40
2018-03-30T00:39:42.820Z,96.30
2018-03-30T00:42:12.965Z,96.40
2018-03-30T00:44:42.563Z,96.30
2018-03-30T00:47:12.277Z,96.10
2018-03-30T00:49:42.046Z,96.20
2018-03-30T00:52:11.630Z,96.40
2018-03-30T00:54:40.786Z,96.50
2018-03-30T00:57:10.464Z,96.50
2018-03-30T00:59:40.218Z,96.60
2018-03-30T01:02:11.480Z,96.70
2018-03-30T01:04:40.446Z,96.70
2018-03-30T01:07:11.049Z,96.60
2018-03-30T01:09:40.770Z,96.60
2018-03-30T01:12:09.772Z,96.60
2018-03-30T01:14:39.761Z,96.50
2018-03-30T01:17:08.971Z,96.50
2018-03-30T01:19:38.313Z,96.50
2018-03-30T01:22:08.494Z,96.20
2018-03-30T01:24:37.887Z,96.20
2018-03-30T01:27:07.081Z,96.20
2018-03-30T01:29:36.646Z,96.20
2018-03-30T01:32:07.253Z,96.20
2018-03-30T01:34:36.537Z,96.20
2018-03-30T01:37:05.893Z,96.20
2018-03-30T01:39:35.442Z,96.20
2018-03-30T01:42:04.814Z,96.20
2018-03-30T01:44:34.336Z,96.00
2018-03-30T01:47:03.119Z,96.00
2018-03-30T01:49:32.160Z,96.30
2018-03-30T01:52:02.355Z,96.60
2018-03-30T01:54:34.827Z,96.60
2018-03-30T01:57:03.907Z,96.60
2018-03-30T01:59:32.703Z,96.60
2018-03-30T02:02:01.742Z,96.70
2018-03-30T02:04:30.355Z,96.70
2018-03-30T02:06:59.449Z,96.70
2018-03-30T02:09:28.592Z,96.70
2018-03-30T02:11:57.731Z,96.70
2018-03-30T02:14:26.438Z,97.00
2018-03-30T02:16:54.911Z,96.60
2018-03-30T02:19:23.729Z,96.40
2018-03-30T02:21:53.053Z,96.30
2018-03-30T02:24:21.919Z,96.20
2018-03-30T02:26:51.102Z,96.20
2018-03-30T02:29:19.918Z,96.30
2018-03-30T02:31:48.840Z,96.40
2018-03-30T02:34:17.448Z,96.40
2018-03-30T02:36:46.090Z,96.50
2018-03-30T02:39:15.435Z,96.50
2018-03-30T02:41:43.849Z,96.40
2018-03-30T02:44:12.593Z,96.50
2018-03-30T02:46:41.314Z,96.50
2018-03-30T02:49:10.583Z,96.50
2018-03-30T02:51:39.405Z,96.40
2018-03-30T02:54:08.259Z,96.40
2018-03-30T02:56:37.699Z,96.50
2018-03-30T02:59:07.388Z,96.50
2018-03-30T03:01:35.988Z,96.80
2018-03-30T03:04:04.534Z,96.50
2018-03-30T03:06:33.336Z,96.50
2018-03-30T03:09:02.022Z,96.50
2018-03-30T03:11:30.736Z,96.40
2018-03-30T03:13:59.073Z,96.40
2018-03-30T03:16:27.725Z,96.30
2018-03-30T03:18:57.045Z,96.30
2018-03-30T03:21:25.852Z,96.30
2018-03-30T03:23:54.142Z,96.30
2018-03-30T03:26:22.936Z,96.20
2018-03-30T03:28:51.858Z,96.20
2018-03-30T03:31:20.607Z,96.20
2018-03-30T03:33:49.259Z,96.20
2018-03-30T03:36:18.036Z,96.20
2018-03-30T03:38:46.927Z,96.20
2018-03-30T03:41:15.752Z,96.20
2018-03-30T03:43:44.200Z,96.10
2018-03-30T03:46:13.741Z,96.20
2018-03-30T03:48:42.144Z,96.20
2018-03-30T03:51:10.892Z,96.30
2018-03-30T03:53:39.609Z,96.10
2018-03-30T03:56:08.660Z,96.20
2018-03-30T03:58:37.262Z,96.20
2018-03-30T04:01:05.969Z,96.20
2018-03-30T04:03:34.455Z,96.20
2018-03-30T04:06:03.113Z,96.30
2018-03-30T04:08:32.057Z,96.20
2018-03-30T04:11:01.590Z,96.20
2018-03-30T04:13:30.249Z,96.20
2018-03-30T04:15:58.965Z,96.20
2018-03-30T04:18:28.220Z,96.40
2018-03-30T04:20:56.531Z,96.40
2018-03-30T04:23:25.261Z,96.80
2018-03-30T04:25:53.754Z,96.80
2018-03-30T04:28:22.280Z,96.80
2018-03-30T04:30:51.012Z,96.80
2018-03-30T04:33:19.571Z,96.80
2018-03-30T04:35:48.263Z,96.70
2018-03-30T04:38:16.647Z,96.70
2018-03-30T04:40:45.296Z,96.50
2018-03-30T04:43:13.668Z,96.50
2018-03-30T04:45:42.164Z,96.50
2018-03-30T04:48:11.853Z,96.40
2018-03-30T04:50:40.161Z,96.50
2018-03-30T04:53:09.066Z,96.40
2018-03-30T04:55:38.469Z,96.30
2018-03-30T04:58:07.640Z,96.10
2018-03-30T05:00:36.453Z,96.10
2018-03-30T05:03:05.729Z,95.90
2018-03-30T05:05:35.292Z,96.10
2018-03-30T05:08:04.690Z,96.30
2018-03-30T05:10:33.952Z,96.30
2018-03-30T05:13:02.648Z,96.40
2018-03-30T05:15:31.397Z,96.30
2018-03-30T05:18:01.014Z,96.50
2018-03-30T05:20:29.879Z,96.60
2018-03-30T05:22:59.624Z,96.70
2018-03-30T05:25:27.986Z,96.70
2018-03-30T05:27:56.323Z,96.70
2018-03-30T05:30:24.569Z,96.70
2018-03-30T05:32:53.172Z,96.60
2018-03-30T05:35:21.790Z,96.40
2018-03-30T05:37:50.269Z,96.50
2018-03-30T05:40:18.756Z,96.40
2018-03-30T05:42:47.095Z,96.50
2018-03-30T05:45:15.871Z,96.60
2018-03-30T05:47:44.319Z,96.70
2018-03-30T05:50:13.550Z,96.70
2018-03-30T05:52:42.312Z,96.70
2018-03-30T05:55:10.891Z,96.70
2018-03-30T05:57:39.643Z,96.70
2018-03-30T06:00:08.918Z,96.60
2018-03-30T06:02:37.752Z,96.60
2018-03-30T06:05:06.571Z,96.40
2018-03-30T06:07:37.217Z,96.30
2018-03-30T06:10:06.800Z,96.30
2018-03-30T06:12:36.354Z,96.40
2018-03-30T06:15:05.834Z,96.50
2018-03-30T06:17:35.106Z,96.40
2018-03-30T06:20:05.201Z,96.60
2018-03-30T06:22:35.097Z,96.50
2018-03-30T06:25:05.048Z,96.50
2018-03-30T06:27:34.222Z,96.50
2018-03-30T06:30:04.300Z,95.60
2018-03-30T06:32:34.217Z,95.40
2018-03-30T06:35:03.816Z,95.10
2018-03-30T06:37:34.011Z,95.40
2018-03-30T06:40:03.655Z,95.40
2018-03-30T06:42:34.572Z,94.70
2018-03-30T06:45:04.171Z,94.70
2018-03-30T06:47:34.209Z,94.60
2018-03-30T06:50:04.896Z,94.90
2018-03-30T06:52:35.060Z,94.90
2018-03-30T06:55:05.850Z,95.60
2018-03-30T06:57:36.852Z,95.20
2018-03-30T07:00:06.989Z,94.80
2018-03-30T07:02:36.680Z,94.80
2018-03-30T07:05:07.014Z,94.60
2018-03-30T07:07:37.028Z,94.20
2018-03-30T07:10:07.193Z,94.00
2018-03-30T07:12:36.545Z,94.00
2018-03-30T07:15:06.240Z,94.00
2018-03-30T07:17:36.567Z,94.10
2018-03-30T07:20:06.694Z,94.30
2018-03-30T07:22:38.248Z,94.10
2018-03-30T07:25:08.379Z,93.30
2018-03-30T07:27:38.957Z,92.50
2018-03-30T07:30:08.336Z,92.50
2018-03-30T07:32:37.710Z,91.70
2018-03-30T07:35:07.275Z,90.60
2018-03-30T07:37:36.405Z,90.20
2018-03-30T07:40:06.155Z,85.80
2018-03-30T07:42:36.067Z,86.40
2018-03-30T07:45:05.563Z,85.40
2018-03-30T07:47:35.215Z,81.90
2018-03-30T07:50:04.519Z,77.90
2018-03-30T07:52:33.799Z,75.10
2018-03-30T07:55:02.763Z,75.00
2018-03-30T07:57:31.828Z,84.60
2018-03-30T08:00:01.029Z,86.90
2018-03-30T08:02:30.299Z,82.00
2018-03-30T08:04:59.140Z,73.90
2018-03-30T08:07:29.686Z,69.80
2018-03-30T08:09:58.801Z,70.50
2018-03-30T08:12:28.491Z,69.80
2018-03-30T08:14:57.516Z,70.90
2018-03-30T08:17:26.501Z,71.40
2018-03-30T08:19:56.707Z,70.00
2018-03-30T08:22:25.779Z,69.80
2018-03-30T08:24:54.608Z,70.00
2018-03-30T08:27:23.735Z,74.50
2018-03-30T08:29:53.575Z,79.10
2018-03-30T08:32:22.700Z,79.00
2018-03-30T08:34:52.906Z,79.80
2018-03-30T08:37:22.183Z,78.70
2018-03-30T08:39:51.813Z,74.40
2018-03-30T08:42:21.299Z,73.20
2018-03-30T08:44:50.988Z,72.50
2018-03-30T08:47:20.680Z,71.90
2018-03-30T08:49:51.146Z,65.50
2018-03-30T08:52:21.636Z,65.30
2018-03-30T08:54:51.753Z,66.50
2018-03-30T08:57:21.858Z,66.20
2018-03-30T08:59:50.803Z,66.10
2018-03-30T09:02:20.068Z,68.30
2018-03-30T09:04:51.057Z,67.00
2018-03-30T09:07:20.801Z,67.00
2018-03-30T09:09:52.972Z,61.60
2018-03-30T09:12:22.986Z,60.50
2018-03-30T09:14:52.937Z,64.00
2018-03-30T09:17:21.918Z,63.90
2018-03-30T09:19:51.885Z,68.80
2018-03-30T09:22:21.625Z,70.40
2018-03-30T09:24:51.435Z,71.30
2018-03-30T09:27:24.187Z,72.00
2018-03-30T09:29:53.371Z,72.00
2018-03-30T09:32:22.420Z,72.00
2018-03-30T09:34:52.527Z,74.30
2018-03-30T09:37:22.144Z,74.10
2018-03-30T09:39:51.941Z,74.20
2018-03-30T09:42:21.868Z,74.70
2018-03-30T09:44:51.548Z,74.70
2018-03-30T09:47:21.067Z,74.00
2018-03-30T09:49:50.934Z,73.90
2018-03-30T09:52:20.563Z,74.00
2018-03-30T09:54:50.426Z,72.60
2018-03-30T09:57:20.125Z,71.10
2018-03-30T09:59:49.195Z,71.10
2018-03-30T10:02:18.148Z,70.60
2018-03-30T10:04:51.859Z,71.00
2018-03-30T10:07:21.482Z,70.80
2018-03-30T10:09:52.047Z,70.20
2018-03-30T10:12:21.788Z,70.20
2018-03-30T10:14:51.042Z,69.80
2018-03-30T10:17:21.035Z,69.90
2018-03-30T10:19:50.346Z,69.70
2018-03-30T10:22:21.585Z,68.10
2018-03-30T10:24:51.597Z,68.10
2018-03-30T10:27:20.626Z,68.20
2018-03-30T10:29:50.376Z,65.20
2018-03-30T10:32:19.503Z,65.20
2018-03-30T10:34:48.984Z,65.80
2018-03-30T10:37:18.338Z,66.80
2018-03-30T10:39:48.867Z,65.70
2018-03-30T10:42:18.486Z,65.20
2018-03-30T10:44:47.361Z,65.20
2018-03-30T10:47:17.115Z,66.20
2018-03-30T10:49:46.062Z,66.20
2018-03-30T10:52:18.860Z,66.50
2018-03-30T10:54:47.633Z,66.50
2018-03-30T10:57:17.505Z,66.50
2018-03-30T10:59:47.007Z,66.40
2018-03-30T11:02:17.032Z,65.30
2018-03-30T11:04:46.683Z,65.20
2018-03-30T11:07:15.638Z,63.70
2018-03-30T11:09:44.697Z,61.30
2018-03-30T11:12:13.621Z,60.40
2018-03-30T11:14:42.817Z,60.00
2018-03-30T11:17:11.680Z,60.80
2018-03-30T11:19:41.065Z,61.10
2018-03-30T11:22:09.993Z,61.60
2018-03-30T11:24:38.925Z,62.20
2018-03-30T11:27:07.789Z,60.80
2018-03-30T11:29:37.268Z,60.50
2018-03-30T11:32:06.206Z,62.30
2018-03-30T11:34:35.169Z,62.10
2018-03-30T11:37:05.705Z,62.00
2018-03-30T11:39:34.476Z,62.10
2018-03-30T11:42:04.053Z,63.40
2018-03-30T11:44:32.939Z,63.20
2018-03-30T11:47:01.855Z,62.10
2018-03-30T11:49:30.777Z,62.20
2018-03-30T11:52:00.407Z,61.10
2018-03-30T11:54:30.132Z,61.10
2018-03-30T11:56:59.222Z,61.00
2018-03-30T11:59:28.109Z,60.70
2018-03-30T12:01:57.494Z,61.00
2018-03-30T12:04:27.833Z,60.10
2018-03-30T12:06:57.322Z,60.00
2018-03-30T12:09:26.881Z,60.80
2018-03-30T12:11:55.842Z,60.80
2018-03-30T12:14:25.602Z,58.90
2018-03-30T12:16:55.653Z,58.90
2018-03-30T12:19:25.769Z,59.30
2018-03-30T12:21:55.444Z,59.80
2018-03-30T12:24:24.260Z,59.70
2018-03-30T12:26:54.089Z,60.20
2018-03-30T12:29:22.981Z,60.20
2018-03-30T12:31:51.778Z,59.90
2018-03-30T12:34:21.342Z,60.40
2018-03-30T12:36:50.953Z,60.10
2018-03-30T12:39:21.313Z,59.20
2018-03-30T12:41:50.102Z,59.20
2018-03-30T12:44:19.512Z,59.50
2018-03-30T12:46:48.367Z,59.10
2018-03-30T12:49:18.045Z,58.90
2018-03-30T12:51:46.907Z,58.90
2018-03-30T12:54:16.607Z,58.50
2018-03-30T12:56:45.520Z,58.40
2018-03-30T12:59:14.434Z,58.10
2018-03-30T13:01:43.516Z,56.70
2018-03-30T13:04:13.083Z,57.00
2018-03-30T13:06:42.579Z,56.10
2018-03-30T13:09:12.439Z,57.00
2018-03-30T13:11:41.419Z,57.40
2018-03-30T13:14:11.240Z,59.20
2018-03-30T13:16:40.098Z,59.20
2018-03-30T13:19:09.815Z,58.60
2018-03-30T13:21:38.710Z,58.50
2018-03-30T13:24:07.716Z,57.60
2018-03-30T13:26:37.994Z,57.40
2018-03-30T13:29:06.744Z,57.90
2018-03-30T13:31:36.131Z,58.50
2018-03-30T13:34:04.919Z,58.50
2018-03-30T13:36:33.686Z,57.00
2018-03-30T13:39:02.338Z,56.30
2018-03-30T13:41:31.748Z,56.90
2018-03-30T13:44:00.230Z,56.90
2018-03-30T13:46:29.013Z,57.70
2018-03-30T13:48:57.948Z,56.80
2018-03-30T13:51:27.037Z,53.80
2018-03-30T13:53:56.636Z,53.10
2018-03-30T13:56:25.563Z,54.20
2018-03-30T13:58:54.560Z,55.20
2018-03-30T14:01:24.447Z,57.70
2018-03-30T14:03:54.097Z,55.80
2018-03-30T14:06:24.091Z,54.50
2018-03-30T14:08:53.105Z,54.50
2018-03-30T14:11:22.844Z,55.60
2018-03-30T14:13:51.739Z,55.60
2018-03-30T14:16:20.533Z,55.10
2018-03-30T14:18:49.366Z,55.90
2018-03-30T14:21:20.065Z,56.60
2018-03-30T14:23:49.239Z,56.60
2018-03-30T14:26:18.312Z,56.50
2018-03-30T14:28:47.900Z,56.90
2018-03-30T14:31:18.014Z,57.80
2018-03-30T14:33:47.118Z,57.80
2018-03-30T14:36:17.060Z,59.60
2018-03-30T14:38:45.852Z,59.60
2018-03-30T14:41:16.041Z,59.60
2018-03-30T14:43:45.713Z,59.50
2018-03-30T14:46:14.716Z,59.50
2018-03-30T14:48:43.781Z,59.80
2018-03-30T14:51:12.786Z,60.30
2018-03-30T14:53:41.718Z,60.60
2018-03-30T14:56:11.388Z,62.00
2018-03-30T14:58:40.300Z,61.90
2018-03-30T15:01:09.596Z,64.60
2018-03-30T15:03:39.512Z,65.40
2018-03-30T15:06:08.553Z,66.30
2018-03-30T15:08:37.651Z,66.60
2018-03-30T15:11:06.491Z,66.90
2018-03-30T15:13:35.560Z,67.40
2018-03-30T15:16:04.694Z,67.60
2018-03-30T15:18:34.339Z,67.30
2018-03-30T15:21:04.030Z,67.10
2018-03-30T15:23:33.128Z,66.70
2018-03-30T15:26:02.152Z,66.50
2018-03-30T15:28:30.952Z,66.50
2018-03-30T15:31:01.007Z,66.70
2018-03-30T15:33:31.142Z,67.10
2018-03-30T15:36:00.781Z,67.70
2018-03-30T15:38:29.753Z,67.60
2018-03-30T15:40:58.957Z,67.40
2018-03-30T15:43:28.014Z,67.70
2018-03-30T15:45:57.867Z,68.40
2018-03-30T15:48:26.839Z,67.70
2018-03-30T15:50:56.768Z,68.30
2018-03-30T15:53:24.661Z,68.70
2018-03-30T15:55:53.684Z,68.70
2018-03-30T15:58:22.714Z,68.20
2018-03-30T16:00:51.798Z,68.00
2018-03-30T16:03:21.606Z,67.90
2018-03-30T16:05:51.492Z,67.70
2018-03-30T16:08:20.482Z,67.70
2018-03-30T16:10:49.559Z,67.90
2018-03-30T16:13:18.638Z,68.20
2018-03-30T16:15:47.813Z,68.10
2018-03-30T16:18:17.835Z,68.20
2018-03-30T16:20:45.999Z,68.10
2018-03-30T16:23:13.244Z,68.30
2018-03-30T16:25:40.637Z,68.40
2018-03-30T16:28:08.715Z,69.10
2018-03-30T16:30:36.259Z,69.00
2018-03-30T16:33:03.620Z,69.00
2018-03-30T16:35:30.832Z,69.20
2018-03-30T16:37:58.115Z,69.50
2018-03-30T16:40:25.370Z,69.30
2018-03-30T16:42:52.630Z,69.70
2018-03-30T16:45:20.589Z,70.10
2018-03-30T16:47:49.105Z,70.10
2018-03-30T16:50:16.339Z,69.80
2018-03-30T16:52:43.405Z,69.60
2018-03-30T16:55:10.672Z,70.20
2018-03-30T16:57:39.208Z,70.40
2018-03-30T17:00:06.519Z,70.30
2018-03-30T17:02:36.667Z,69.80
2018-03-30T17:05:03.747Z,69.90
2018-03-30T17:07:31.156Z,70.10
2018-03-30T17:09:58.329Z,71.30
2018-03-30T17:12:25.543Z,71.70
2018-03-30T17:14:53.391Z,71.80
2018-03-30T17:17:21.393Z,72.00
2018-03-30T17:19:49.428Z,72.30
2018-03-30T17:22:17.125Z,72.30
2018-03-30T17:24:45.623Z,73.00
2018-03-30T17:27:13.179Z,73.00
2018-03-30T17:29:40.668Z,73.10
2018-03-30T17:32:08.121Z,72.80
2018-03-30T17:34:35.401Z,72.20
2018-03-30T17:37:03.767Z,72.20
2018-03-30T17:39:31.226Z,72.10
2018-03-30T17:41:58.415Z,72.40
2018-03-30T17:44:25.571Z,72.70
2018-03-30T17:46:52.870Z,73.10
2018-03-30T17:49:20.010Z,73.30
2018-03-30T17:51:48.296Z,73.90
2018-03-30T17:54:15.376Z,74.30
2018-03-30T17:56:43.436Z,74.40
2018-03-30T17:59:11.686Z,75.30
2018-03-30T18:01:39.562Z,75.10
2018-03-30T18:04:06.870Z,75.20
2018-03-30T18:06:34.169Z,74.70
2018-03-30T18:09:01.748Z,74.50
2018-03-30T18:11:29.680Z,75.00
2018-03-30T18:13:56.991Z,75.00
2018-03-30T18:16:25.358Z,75.90
2018-03-30T18:18:52.846Z,75.90
2018-03-30T18:21:20.739Z,76.40
2018-03-30T18:23:48.216Z,77.20
2018-03-30T18:26:15.354Z,77.60
2018-03-30T18:28:42.784Z,77.80
2018-03-30T18:31:10.292Z,78.20
2018-03-30T18:33:37.877Z,78.60
2018-03-30T18:36:05.136Z,77.60
2018-03-30T18:38:33.067Z,77.00
2018-03-30T18:41:01.089Z,76.70
2018-03-30T18:43:28.199Z,76.70
2018-03-30T18:45:55.455Z,76.20
2018-03-30T18:48:22.955Z,76.80
2018-03-30T18:50:50.458Z,76.90
2018-03-30T18:53:17.513Z,77.30
2018-03-30T18:55:45.360Z,77.30
2018-03-30T18:58:13.426Z,77.20
2018-03-30T19:00:41.343Z,77.50
2018-03-30T19:03:08.531Z,77.50
2018-03-30T19:05:36.565Z,77.90
2018-03-30T19:08:03.760Z,77.80
2018-03-30T19:10:30.924Z,78.30
2018-03-30T19:12:58.902Z,78.80
2018-03-30T19:15:26.087Z,78.70
2018-03-30T19:17:53.678Z,78.80
2018-03-30T19:20:21.239Z,78.80
2018-03-30T19:22:49.092Z,79.20
2018-03-30T19:25:16.480Z,79.80
2018-03-30T19:27:44.718Z,79.60
2018-03-30T19:30:12.790Z,79.60
2018-03-30T19:32:39.876Z,79.60
2018-03-30T19:35:08.005Z,80.80
2018-03-30T19:37:35.587Z,80.80
2018-03-30T19:40:02.734Z,81.20
2018-03-30T19:42:29.899Z,81.70
2018-03-30T19:44:57.756Z,81.70
2018-03-30T19:47:24.976Z,80.80
2018-03-30T19:49:52.264Z,82.40
2018-03-30T19:52:19.393Z,82.80
2018-03-30T19:54:46.775Z,83.00
2018-03-30T19:57:14.509Z,82.60
2018-03-30T19:59:41.896Z,82.50
2018-03-30T20:02:09.835Z,82.90
2018-03-30T20:04:37.190Z,82.90
2018-03-30T20:07:05.276Z,81.50
2018-03-30T20:09:33.350Z,80.10
2018-03-30T20:12:01.707Z,80.80
2018-03-30T20:14:28.800Z,81.70
2018-03-30T20:16:58.183Z,82.20
2018-03-30T20:19:25.461Z,82.80
2018-03-30T20:21:53.418Z,84.40
2018-03-30T20:24:20.789Z,84.30
2018-03-30T20:26:48.168Z,86.20
2018-03-30T20:29:15.631Z,86.80
2018-03-30T20:31:42.924Z,87.50
2018-03-30T20:34:10.931Z,88.80
2018-03-30T20:36:38.143Z,88.20
2018-03-30T20:39:06.052Z,88.50
2018-03-30T20:41:33.449Z,88.50
2018-03-30T20:44:01.014Z,88.80
2018-03-30T20:46:28.854Z,89.20
2018-03-30T20:48:56.308Z,89.20
2018-03-30T20:51:23.435Z,89.50
2018-03-30T20:53:50.615Z,89.60
2018-03-30T20:56:17.770Z,89.20
2018-03-30T20:58:45.112Z,89.20
2018-03-30T21:01:12.774Z,88.60
2018-03-30T21:03:40.445Z,87.60
2018-03-30T21:06:07.753Z,87.90
2018-03-30T21:08:35.266Z,88.50
2018-03-30T21:11:03.141Z,89.10
2018-03-30T21:13:30.837Z,89.10
2018-03-30T21:15:58.042Z,89.10
2018-03-30T21:18:25.972Z,89.10
2018-03-30T21:20:53.467Z,89.10
2018-03-30T21:23:21.367Z,89.30
2018-03-30T21:25:48.623Z,89.60
2018-03-30T21:28:16.877Z,89.90
2018-03-30T21:30:45.070Z,90.50
2018-03-30T21:33:13.064Z,90.40
2018-03-30T21:35:40.243Z,90.80
2018-03-30T21:38:07.554Z,91.10
2018-03-30T21:40:35.542Z,91.80
2018-03-30T21:43:03.580Z,92.00
2018-03-30T21:45:30.904Z,92.00
2018-03-30T21:47:58.762Z,92.30
2018-03-30T21:50:25.857Z,92.30
2018-03-30T21:52:53.134Z,92.40
2018-03-30T21:55:20.223Z,92.40
2018-03-30T21:57:50.865Z,92.30
2018-03-30T22:00:18.678Z,92.00
2018-03-30T22:02:46.253Z,92.00
2018-03-30T22:05:13.370Z,91.90
2018-03-30T22:07:40.720Z,91.90
2018-03-30T22:10:08.809Z,92.30
2018-03-30T22:12:35.973Z,92.20
2018-03-30T22:15:03.207Z,92.30
2018-03-30T22:17:30.513Z,92.30
2018-03-30T22:19:58.574Z,91.90
2018-03-30T22:22:26.801Z,92.10
2018-03-30T22:24:54.498Z,92.10
2018-03-30T22:27:21.700Z,92.20
2018-03-30T22:29:48.764Z,92.00
2018-03-30T22:32:17.381Z,91.90
2018-03-30T22:34:45.150Z,91.90
2018-03-30T22:37:13.347Z,92.00
2018-03-30T22:39:41.352Z,91.80
2018-03-30T22:42:08.739Z,91.80
2018-03-30T22:44:36.165Z,91.40
2018-03-30T22:47:04.026Z,91.40
2018-03-30T22:49:31.579Z,90.90
2018-03-30T22:51:59.726Z,90.80
2018-03-30T22:54:27.178Z,90.40
2018-03-30T22:56:55.085Z,89.80
2018-03-30T22:59:22.463Z,89.80
2018-03-30T23:01:50.342Z,89.20
2018-03-30T23:04:17.526Z,89.10
2018-03-30T23:06:45.087Z,88.90
2018-03-30T23:09:12.971Z,89.00
2018-03-30T23:11:40.360Z,88.90
2018-03-30T23:14:08.735Z,88.90
2018-03-30T23:16:36.747Z,88.90
2018-03-30T23:19:05.080Z,89.40
2018-03-30T23:21:33.171Z,89.40
2018-03-30T23:24:01.037Z,89.70
2018-03-30T23:26:29.082Z,90.00
2018-03-30T23:28:57.756Z,90.10
2018-03-30T23:31:25.149Z,90.20
2018-03-30T23:33:52.534Z,90.20
2018-03-30T23:36:21.274Z,90.20
2018-03-30T23:38:49.075Z,90.20
2018-03-30T23:41:16.615Z,90.10
2018-03-30T23:43:44.628Z,90.20
2018-03-30T23:46:12.020Z,90.20
2018-03-30T23:48:39.505Z,90.20
2018-03-30T23:51:07.746Z,90.30
2018-03-30T23:53:35.044Z,90.30
2018-03-30T23:56:02.501Z,90.40
2018-03-30T23:58:30.870Z,90.50
